createdAt,value
2018-07-07T00:01:11.314Z,13.90
2018-07-07T00:03:41.400Z,13.80
2018-07-07T00:06:12.382Z,13.80
2018-07-07T00:08:42.354Z,13.80
2018-07-07T00:11:13.345Z,13.70
2018-07-07T00:13:47.770Z,13.70
2018-07-07T00:16:19.205Z,13.70
2018-07-07T00:18:50.732Z,13.60
2018-07-07T00:21:22.530Z,13.60
2018-07-07T00:23:54.363Z,13.60
2018-07-07T00:26:23.569Z,13.50
2018-07-07T00:28:54.596Z,13.50
2018-07-07T00:31:24.430Z,13.40
2018-07-07T00:33:55.037Z,13.40
2018-07-07T00:36:24.824Z,13.30
2018-07-07T00:38:56.511Z,13.30
2018-07-07T00:41:25.733Z,13.20
2018-07-07T00:43:54.985Z,13.20
2018-07-07T00:46:24.816Z,13.20
2018-07-07T00:48:55.983Z,13.10
2018-07-07T00:51:25.113Z,13.10
2018-07-07T00:53:55.339Z,13.10
2018-07-07T00:56:25.794Z,13.00
2018-07-07T00:58:55.974Z,13.10
2018-07-07T01:01:25.953Z,13.00
2018-07-07T01:03:57.895Z,13.00
2018-07-07T01:06:30.696Z,12.90
2018-07-07T01:09:01.081Z,12.90
2018-07-07T01:11:30.808Z,12.80
2018-07-07T01:14:00.039Z,12.80
2018-07-07T01:16:30.027Z,12.80
2018-07-07T01:18:59.149Z,12.80
2018-07-07T01:21:28.274Z,12.70
2018-07-07T01:23:57.520Z,12.70
2018-07-07T01:26:27.038Z,12.70
2018-07-07T01:28:57.379Z,12.70
2018-07-07T01:31:26.640Z,12.70
2018-07-07T01:33:55.813Z,12.60
2018-07-07T01:36:26.642Z,12.60
2018-07-07T01:38:56.645Z,12.60
2018-07-07T01:41:27.362Z,12.60
2018-07-07T01:43:57.416Z,12.60
2018-07-07T01:46:27.264Z,12.50
2018-07-07T01:49:00.294Z,12.50
2018-07-07T01:51:30.026Z,12.50
2018-07-07T01:54:01.961Z,12.40
2018-07-07T01:56:33.249Z,12.40
2018-07-07T01:59:03.377Z,12.40
2018-07-07T02:01:34.010Z,12.30
2018-07-07T02:04:04.277Z,12.30
2018-07-07T02:06:34.326Z,12.30
2018-07-07T02:09:04.220Z,12.20
2018-07-07T02:11:34.464Z,12.20
2018-07-07T02:14:04.251Z,12.20
2018-07-07T02:16:33.951Z,12.10
2018-07-07T02:19:05.404Z,12.10
2018-07-07T02:21:35.724Z,12.10
2018-07-07T02:24:06.877Z,12.00
2018-07-07T02:26:38.449Z,12.00
2018-07-07T02:29:08.867Z,12.10
2018-07-07T02:31:39.098Z,12.10
2018-07-07T02:34:08.852Z,12.10
2018-07-07T02:36:37.944Z,12.00
2018-07-07T02:39:10.210Z,12.00
2018-07-07T02:41:40.510Z,12.00
2018-07-07T02:44:10.285Z,12.00
2018-07-07T02:46:41.374Z,11.90
2018-07-07T02:49:12.421Z,11.90
2018-07-07T02:51:43.863Z,11.90
2018-07-07T02:54:12.887Z,11.80
2018-07-07T02:56:42.764Z,11.80
2018-07-07T02:59:12.429Z,11.70
2018-07-07T03:01:41.461Z,11.70
2018-07-07T03:04:12.061Z,11.70
2018-07-07T03:06:41.369Z,11.70
2018-07-07T03:09:11.984Z,11.60
2018-07-07T03:11:43.655Z,11.60
2018-07-07T03:14:13.408Z,11.60
2018-07-07T03:16:43.357Z,11.70
2018-07-07T03:19:13.348Z,11.60
2018-07-07T03:21:43.462Z,11.60
2018-07-07T03:24:13.013Z,11.60
2018-07-07T03:26:44.498Z,11.50
2018-07-07T03:29:14.873Z,11.50
2018-07-07T03:31:50.086Z,11.50
2018-07-07T03:34:20.141Z,11.50
2018-07-07T03:36:50.121Z,11.50
2018-07-07T03:39:19.220Z,11.50
2018-07-07T03:41:52.170Z,11.50
2018-07-07T03:44:21.111Z,11.50
2018-07-07T03:46:50.388Z,11.50
2018-07-07T03:49:21.502Z,11.50
2018-07-07T03:51:53.028Z,11.50
2018-07-07T03:54:24.267Z,11.50
2018-07-07T03:56:53.486Z,11.60
2018-07-07T03:59:23.867Z,11.60
2018-07-07T04:01:53.887Z,11.60
2018-07-07T04:04:23.980Z,11.70
2018-07-07T04:06:54.284Z,11.70
2018-07-07T04:09:25.365Z,11.80
2018-07-07T04:11:56.179Z,11.90
2018-07-07T04:14:28.308Z,12.00
2018-07-07T04:16:58.387Z,12.10
2018-07-07T04:19:29.747Z,12.20
2018-07-07T04:22:00.292Z,12.40
2018-07-07T04:24:31.471Z,12.50
2018-07-07T04:27:05.438Z,12.60
2018-07-07T04:29:34.664Z,12.70
2018-07-07T04:32:04.569Z,12.80
2018-07-07T04:34:33.728Z,12.90
2018-07-07T04:37:08.939Z,12.90
2018-07-07T04:39:37.909Z,13.10
2018-07-07T04:42:09.669Z,13.10
2018-07-07T04:44:41.675Z,13.30
2018-07-07T04:47:12.461Z,13.30
2018-07-07T04:49:41.724Z,13.40
2018-07-07T04:52:12.030Z,13.40
2018-07-07T04:54:41.809Z,13.40
2018-07-07T04:57:12.180Z,13.60
2018-07-07T04:59:43.370Z,13.70
2018-07-07T05:02:13.731Z,13.90
2018-07-07T05:04:44.119Z,13.90
2018-07-07T05:07:13.185Z,13.90
2018-07-07T05:09:43.432Z,14.00
2018-07-07T05:12:13.731Z,14.00
2018-07-07T05:14:44.052Z,14.00
2018-07-07T05:17:14.502Z,14.10
2018-07-07T05:19:46.360Z,14.20
2018-07-07T05:22:16.383Z,14.40
2018-07-07T05:24:47.302Z,14.30
2018-07-07T05:27:17.846Z,14.30
2018-07-07T05:29:49.296Z,14.40
2018-07-07T05:32:18.974Z,14.50
2018-07-07T05:34:49.441Z,14.70
2018-07-07T05:37:19.359Z,14.90
2018-07-07T05:39:48.602Z,15.20
2018-07-07T05:42:18.764Z,15.50
2018-07-07T05:44:48.148Z,15.60
2018-07-07T05:47:18.357Z,15.90
2018-07-07T05:49:47.939Z,16.20
2018-07-07T05:52:16.877Z,16.60
2018-07-07T05:54:47.878Z,17.00
2018-07-07T05:57:17.544Z,17.30
2018-07-07T05:59:46.559Z,17.70
2018-07-07T06:02:15.787Z,18.20
2018-07-07T06:04:45.011Z,18.00
2018-07-07T06:07:14.132Z,17.90
2018-07-07T06:09:44.962Z,18.00
2018-07-07T06:12:15.577Z,18.20
2018-07-07T06:14:44.797Z,18.10
2018-07-07T06:17:16.297Z,19.00
2018-07-07T06:19:48.783Z,19.40
2018-07-07T06:22:23.769Z,19.10
2018-07-07T06:24:54.464Z,19.00
2018-07-07T06:27:24.618Z,18.90
2018-07-07T06:30:01.575Z,19.20
2018-07-07T06:32:35.828Z,19.70
2018-07-07T06:35:10.463Z,20.40
2018-07-07T06:38:46.412Z,20.60
2018-07-07T06:41:24.793Z,21.50
2018-07-07T06:44:08.505Z,21.10
2018-07-07T06:47:00.109Z,21.10
2018-07-07T06:49:36.074Z,21.60
2018-07-07T06:52:06.319Z,21.90
2018-07-07T06:54:40.017Z,22.00
2018-07-07T06:57:15.061Z,22.70
2018-07-07T06:59:46.839Z,23.10
2018-07-07T07:02:19.022Z,23.80
2018-07-07T07:05:01.124Z,23.50
2018-07-07T07:07:32.712Z,23.90
2018-07-07T07:10:03.919Z,24.80
2018-07-07T07:12:36.929Z,24.40
2018-07-07T07:15:07.483Z,24.10
2018-07-07T07:17:38.255Z,25.50
2018-07-07T07:20:12.771Z,26.00
2018-07-07T07:22:44.702Z,26.00
2018-07-07T07:25:16.800Z,25.20
2018-07-07T07:27:55.492Z,25.00
2018-07-07T07:30:26.522Z,26.00
2018-07-07T07:33:03.637Z,25.40
2018-07-07T07:35:41.181Z,26.20
2018-07-07T07:38:23.802Z,26.70
2018-07-07T07:40:59.276Z,26.00
2018-07-07T07:43:33.226Z,26.40
2018-07-07T07:46:17.638Z,26.80
2018-07-07T07:51:40.266Z,26.80
2018-07-07T07:54:12.989Z,27.40
2018-07-07T07:56:43.817Z,27.30
2018-07-07T07:59:13.113Z,27.20
2018-07-07T08:01:42.362Z,26.80
2018-07-07T08:04:13.099Z,27.30
2018-07-07T08:06:43.198Z,26.90
2018-07-07T08:09:14.257Z,26.40
2018-07-07T08:11:44.745Z,26.90
2018-07-07T08:14:14.519Z,26.40
2018-07-07T08:16:44.642Z,25.90
2018-07-07T08:19:15.919Z,25.30
2018-07-07T08:21:45.919Z,26.10
2018-07-07T08:24:16.087Z,26.70
2018-07-07T08:26:49.261Z,26.10
2018-07-07T08:29:19.917Z,25.10
2018-07-07T08:31:54.569Z,24.50
2018-07-07T08:34:25.405Z,24.90
2018-07-07T08:36:54.514Z,25.40
2018-07-07T08:39:23.504Z,26.30
2018-07-07T08:41:52.780Z,26.00
2018-07-07T08:44:22.577Z,26.60
2018-07-07T08:46:52.388Z,26.80
2018-07-07T08:49:21.436Z,26.30
2018-07-07T08:51:51.693Z,26.60
2018-07-07T08:54:23.765Z,26.60
2018-07-07T08:56:55.032Z,26.00
2018-07-07T08:59:24.801Z,25.50
2018-07-07T09:01:56.113Z,25.70
2018-07-07T09:04:26.916Z,25.30
2018-07-07T09:06:57.893Z,25.90
2018-07-07T09:09:28.821Z,26.00
2018-07-07T09:11:58.055Z,26.50
2018-07-07T09:14:29.060Z,27.00
2018-07-07T09:16:58.548Z,26.90
2018-07-07T09:19:28.836Z,27.10
2018-07-07T09:21:58.988Z,27.80
2018-07-07T09:24:29.011Z,27.90
2018-07-07T09:27:00.010Z,27.80
2018-07-07T09:29:31.817Z,27.80
2018-07-07T09:32:01.277Z,27.80
2018-07-07T09:34:33.619Z,27.70
2018-07-07T09:37:03.887Z,27.90
2018-07-07T09:39:33.804Z,28.40
2018-07-07T09:42:05.171Z,28.10
2018-07-07T09:44:35.159Z,27.80
2018-07-07T09:47:04.937Z,28.40
2018-07-07T09:49:33.890Z,28.40
2018-07-07T09:52:03.737Z,29.00
2018-07-07T09:54:34.109Z,28.00
2018-07-07T09:57:04.418Z,28.10
2018-07-07T09:59:35.016Z,28.20
2018-07-07T10:02:04.051Z,29.00
2018-07-07T10:04:34.852Z,29.20
2018-07-07T10:07:04.948Z,28.90
2018-07-07T10:09:33.999Z,28.50
2018-07-07T10:12:04.094Z,28.70
2018-07-07T10:14:34.240Z,28.00
2018-07-07T10:17:03.372Z,27.80
2018-07-07T10:19:34.307Z,27.90
2018-07-07T10:22:05.239Z,27.80
2018-07-07T10:24:34.539Z,27.10
2018-07-07T10:27:03.760Z,27.40
2018-07-07T10:29:32.940Z,27.10
2018-07-07T10:32:05.929Z,27.30
2018-07-07T10:34:36.655Z,27.60
2018-07-07T10:37:05.694Z,28.50
2018-07-07T10:39:37.823Z,29.10
2018-07-07T10:42:09.019Z,29.30
2018-07-07T10:44:39.105Z,29.90
2018-07-07T10:47:09.379Z,29.80
2018-07-07T10:49:39.485Z,29.30
2018-07-07T10:52:08.752Z,28.80
2018-07-07T10:54:38.843Z,28.60
2018-07-07T10:57:10.185Z,29.30
2018-07-07T10:59:39.310Z,28.10
2018-07-07T11:02:09.703Z,28.30
2018-07-07T11:04:39.272Z,27.90
2018-07-07T11:07:08.876Z,28.10
2018-07-07T11:09:39.635Z,28.90
2018-07-07T11:12:09.471Z,28.80
2018-07-07T11:14:40.883Z,28.10
2018-07-07T11:17:11.392Z,28.40
2018-07-07T11:19:40.529Z,28.50
2018-07-07T11:22:09.505Z,28.70
2018-07-07T11:24:38.856Z,28.70
2018-07-07T11:27:09.568Z,28.00
2018-07-07T11:29:40.191Z,27.80
2018-07-07T11:32:10.793Z,28.30
2018-07-07T11:34:39.820Z,28.60
2018-07-07T11:37:11.570Z,28.20
2018-07-07T11:39:40.740Z,28.80
2018-07-07T11:42:11.755Z,28.70
2018-07-07T11:44:42.416Z,29.40
2018-07-07T11:47:13.115Z,29.70
2018-07-07T11:49:42.260Z,30.20
2018-07-07T11:52:13.782Z,29.30
2018-07-07T11:54:44.944Z,29.60
2018-07-07T11:57:15.600Z,29.80
2018-07-07T11:59:45.595Z,29.30
2018-07-07T12:02:15.422Z,29.50
2018-07-07T12:04:44.700Z,30.20
2018-07-07T12:07:14.386Z,30.50
2018-07-07T12:09:45.070Z,29.60
2018-07-07T12:12:14.243Z,29.50
2018-07-07T12:14:44.442Z,29.50
2018-07-07T12:17:14.365Z,29.60
2018-07-07T12:19:43.458Z,28.90
2018-07-07T12:22:12.547Z,28.80
2018-07-07T12:24:42.695Z,28.90
2018-07-07T12:27:11.736Z,29.50
2018-07-07T12:29:40.878Z,30.10
2018-07-07T12:32:10.081Z,29.30
2018-07-07T12:34:40.592Z,29.10
2018-07-07T12:37:10.542Z,29.40
2018-07-07T12:39:39.625Z,29.40
2018-07-07T12:42:10.105Z,29.10
2018-07-07T12:44:39.337Z,29.70
2018-07-07T12:47:09.318Z,29.80
2018-07-07T12:49:39.420Z,30.10
2018-07-07T12:52:08.577Z,30.00
2018-07-07T12:54:39.163Z,29.30
2018-07-07T12:57:11.485Z,29.60
2018-07-07T12:59:40.492Z,29.50
2018-07-07T13:02:10.429Z,29.70
2018-07-07T13:04:40.877Z,29.00
2018-07-07T13:07:11.317Z,28.90
2018-07-07T13:09:40.568Z,28.70
2018-07-07T13:12:12.716Z,29.30
2018-07-07T13:14:41.815Z,29.10
2018-07-07T13:17:11.599Z,29.00
2018-07-07T13:19:41.826Z,28.50
2018-07-07T13:22:12.687Z,28.10
2018-07-07T13:24:44.606Z,28.40
2018-07-07T13:27:13.667Z,28.60
2018-07-07T13:29:43.793Z,28.90
2018-07-07T13:32:18.425Z,29.30
2018-07-07T13:34:49.367Z,28.80
2018-07-07T13:37:22.264Z,29.20
2018-07-07T13:39:52.528Z,29.40
2018-07-07T13:42:23.177Z,29.20
2018-07-07T13:44:54.257Z,29.10
2018-07-07T13:47:26.233Z,28.70
2018-07-07T13:49:55.887Z,28.70
2018-07-07T13:58:13.174Z,27.70
2018-07-07T14:00:44.507Z,28.30
2018-07-07T14:03:13.705Z,28.30
2018-07-07T14:05:44.322Z,28.40
2018-07-07T14:08:13.308Z,28.40
2018-07-07T14:10:42.803Z,28.10
2018-07-07T14:13:12.348Z,27.90
2018-07-07T14:15:45.269Z,27.90
2018-07-07T14:18:14.408Z,27.70
2018-07-07T14:20:45.757Z,28.20
2018-07-07T14:23:20.901Z,28.50
2018-07-07T14:25:51.011Z,28.60
2018-07-07T14:28:21.543Z,28.60
2018-07-07T14:30:51.978Z,28.60
2018-07-07T14:33:23.401Z,28.30
2018-07-07T14:35:54.216Z,28.10
2018-07-07T14:38:35.446Z,28.40
2018-07-07T14:41:13.968Z,28.00
2018-07-07T14:43:51.929Z,28.20
2018-07-07T14:46:22.224Z,27.90
2018-07-07T14:48:54.699Z,27.60
2018-07-07T14:51:26.989Z,27.40
2018-07-07T14:53:59.246Z,27.50
2018-07-07T14:56:29.744Z,27.60
2018-07-07T14:58:58.908Z,27.40
2018-07-07T15:01:28.063Z,27.60
2018-07-07T15:04:02.549Z,28.00
2018-07-07T15:06:32.514Z,27.90
2018-07-07T15:09:04.717Z,27.80
2018-07-07T15:11:34.416Z,27.90
2018-07-07T15:14:04.632Z,27.70
2018-07-07T15:16:34.746Z,27.40
2018-07-07T15:19:05.884Z,27.30
2018-07-07T15:21:36.303Z,27.00
2018-07-07T15:24:05.409Z,26.80
2018-07-07T15:26:34.813Z,26.70
2018-07-07T15:29:05.408Z,26.70
2018-07-07T15:31:38.610Z,26.60
2018-07-07T15:34:09.000Z,26.60
2018-07-07T15:36:41.472Z,26.40
2018-07-07T15:39:11.974Z,26.50
2018-07-07T15:41:41.571Z,26.30
2018-07-07T15:44:11.023Z,26.00
2018-07-07T15:46:42.276Z,26.20
2018-07-07T15:49:13.408Z,26.00
2018-07-07T15:51:43.741Z,26.10
2018-07-07T15:54:14.802Z,26.10
2018-07-07T15:56:44.702Z,25.90
2018-07-07T15:59:13.944Z,25.90
2018-07-07T16:01:43.418Z,25.80
2018-07-07T16:04:13.683Z,25.80
2018-07-07T16:06:42.752Z,25.70
2018-07-07T16:09:11.994Z,25.50
2018-07-07T16:11:41.755Z,25.40
2018-07-07T16:14:13.015Z,25.40
2018-07-07T16:16:42.703Z,25.50
2018-07-07T16:19:12.135Z,25.40
2018-07-07T16:21:41.816Z,25.40
2018-07-07T16:24:11.298Z,25.30
2018-07-07T16:26:43.224Z,25.40
2018-07-07T16:29:12.210Z,25.30
2018-07-07T16:31:41.170Z,25.20
2018-07-07T16:34:10.786Z,25.10
2018-07-07T16:36:40.229Z,25.10
2018-07-07T16:39:11.424Z,25.10
2018-07-07T16:41:40.723Z,25.00
2018-07-07T16:44:10.399Z,24.90
2018-07-07T16:46:42.135Z,24.90
2018-07-07T16:49:12.697Z,24.80
2018-07-07T16:51:43.115Z,24.70
2018-07-07T16:54:12.186Z,24.70
2018-07-07T16:56:41.920Z,24.50
2018-07-07T16:59:13.557Z,24.40
2018-07-07T17:01:43.868Z,24.30
2018-07-07T17:04:13.079Z,24.20
2018-07-07T17:06:45.239Z,24.00
2018-07-07T17:09:15.647Z,23.90
2018-07-07T17:11:44.941Z,23.80
2018-07-07T17:14:16.121Z,23.80
2018-07-07T17:16:45.683Z,23.90
2018-07-07T17:19:16.451Z,23.70
2018-07-07T17:21:46.480Z,23.70
2018-07-07T17:24:17.940Z,23.60
2018-07-07T17:26:48.287Z,23.50
2018-07-07T17:29:18.032Z,23.50
2018-07-07T17:31:48.421Z,23.40
2018-07-07T17:34:18.264Z,23.40
2018-07-07T17:36:49.096Z,23.30
2018-07-07T17:39:21.725Z,23.20
2018-07-07T17:41:58.297Z,23.10
2018-07-07T17:44:28.852Z,23.00
2018-07-07T17:47:00.034Z,23.00
2018-07-07T17:49:29.862Z,22.90
2018-07-07T17:52:00.446Z,22.90
2018-07-07T17:54:31.447Z,22.80
2018-07-07T17:57:02.856Z,22.80
2018-07-07T17:59:32.155Z,22.70
2018-07-07T18:02:02.944Z,22.60
2018-07-07T18:04:33.095Z,22.50
2018-07-07T18:07:02.880Z,22.50
2018-07-07T18:09:31.893Z,22.40
2018-07-07T18:12:02.987Z,22.30
2018-07-07T18:14:33.960Z,22.30
2018-07-07T18:17:04.449Z,22.20
2018-07-07T18:19:34.084Z,22.20
2018-07-07T18:22:04.693Z,22.00
2018-07-07T18:24:36.168Z,22.00
2018-07-07T18:27:08.003Z,21.90
2018-07-07T18:29:39.458Z,21.80
2018-07-07T18:32:09.528Z,21.90
2018-07-07T18:34:41.635Z,21.80
2018-07-07T18:37:11.329Z,21.70
2018-07-07T18:39:40.887Z,21.60
2018-07-07T18:42:10.466Z,21.40
2018-07-07T18:44:41.025Z,21.30
2018-07-07T18:47:10.046Z,21.10
2018-07-07T18:49:40.529Z,21.00
2018-07-07T18:52:10.785Z,20.90
2018-07-07T18:54:40.698Z,20.80
2018-07-07T18:57:10.272Z,20.70
2018-07-07T18:59:40.282Z,20.60
2018-07-07T19:02:11.067Z,20.50
2018-07-07T19:04:41.106Z,20.40
2018-07-07T19:07:13.071Z,20.20
2018-07-07T19:09:45.138Z,20.10
2018-07-07T19:12:15.739Z,19.90
2018-07-07T19:14:44.859Z,19.80
2018-07-07T19:17:14.414Z,19.60
2018-07-07T19:19:45.140Z,19.40
2018-07-07T19:22:19.847Z,19.40
2018-07-07T19:24:53.953Z,19.20
2018-07-07T19:27:23.749Z,19.10
2018-07-07T19:29:53.592Z,18.90
2018-07-07T19:32:28.370Z,18.80
2018-07-07T19:35:02.572Z,18.70
2018-07-07T19:37:34.726Z,18.60
2018-07-07T19:40:04.546Z,18.60
2018-07-07T19:42:55.711Z,18.50
2018-07-07T19:45:26.025Z,18.40
2018-07-07T19:47:59.568Z,18.20
2018-07-07T19:50:30.080Z,18.10
2018-07-07T19:52:59.937Z,17.90
2018-07-07T19:55:30.008Z,17.70
2018-07-07T19:58:00.047Z,17.60
2018-07-07T20:00:29.070Z,17.50
2018-07-07T20:02:59.240Z,17.30
2018-07-07T20:05:29.775Z,17.20
2018-07-07T20:08:00.287Z,17.10
2018-07-07T20:10:29.407Z,17.00
2018-07-07T20:13:00.868Z,16.90
2018-07-07T20:17:43.509Z,16.70
2018-07-07T20:20:52.206Z,16.60
2018-07-07T20:23:21.169Z,16.50
2018-07-07T20:25:56.045Z,16.40
2018-07-07T20:28:30.269Z,16.30
2018-07-07T20:30:59.664Z,16.20
2018-07-07T20:33:29.396Z,16.10
2018-07-07T20:35:58.423Z,16.00
2018-07-07T20:38:28.370Z,16.00
2018-07-07T20:40:58.636Z,15.90
2018-07-07T20:43:28.454Z,15.80
2018-07-07T20:45:58.381Z,15.70
2018-07-07T20:48:28.294Z,15.70
2018-07-07T20:50:58.325Z,15.60
2018-07-07T20:53:28.841Z,15.50
2018-07-07T20:55:58.030Z,15.50
2018-07-07T20:58:30.147Z,15.40
2018-07-07T21:00:59.972Z,15.40
2018-07-07T21:03:30.328Z,15.30
2018-07-07T21:05:59.748Z,15.20
2018-07-07T21:08:29.141Z,15.20
2018-07-07T21:10:59.890Z,15.10
2018-07-07T21:13:32.484Z,15.00
2018-07-07T21:16:02.986Z,14.90
2018-07-07T21:18:32.527Z,14.90
2018-07-07T21:21:02.628Z,14.80
2018-07-07T21:23:34.183Z,14.70
2018-07-07T21:26:05.073Z,14.60
2018-07-07T21:28:35.832Z,14.50
2018-07-07T21:31:05.760Z,14.40
2018-07-07T21:33:36.475Z,14.40
2018-07-07T21:36:05.621Z,14.30
2018-07-07T21:38:35.384Z,14.30
2018-07-07T21:41:04.534Z,14.30
2018-07-07T21:43:35.759Z,14.20
2018-07-07T21:46:06.462Z,14.20
2018-07-07T21:48:37.173Z,14.10
2018-07-07T21:51:06.783Z,14.00
2018-07-07T21:53:36.622Z,14.00
2018-07-07T21:56:07.792Z,14.00
2018-07-07T21:58:38.670Z,13.90
2018-07-07T22:01:17.926Z,13.90
2018-07-07T22:03:52.795Z,13.80
2018-07-07T22:06:27.830Z,13.70
2018-07-07T22:08:56.872Z,13.70
2018-07-07T22:11:26.907Z,13.60
2018-07-07T22:13:56.843Z,13.50
2018-07-07T22:16:26.221Z,13.50
2018-07-07T22:18:56.951Z,13.40
2018-07-07T22:21:36.661Z,13.30
2018-07-07T22:24:10.593Z,13.30
2018-07-07T22:26:41.385Z,13.20
2018-07-07T22:29:10.822Z,13.20
2018-07-07T22:31:39.914Z,13.10
2018-07-07T22:34:10.062Z,13.10
2018-07-07T22:36:39.290Z,13.00
2018-07-07T22:39:10.477Z,13.00
2018-07-07T22:41:53.871Z,12.90
2018-07-07T22:44:24.167Z,12.90
2018-07-07T22:46:53.777Z,12.90
2018-07-07T22:49:24.908Z,12.80
2018-07-07T22:51:55.726Z,12.80
2018-07-07T22:54:27.453Z,12.80
2018-07-07T22:56:57.780Z,12.70
2018-07-07T22:59:26.813Z,12.70
2018-07-07T23:01:55.920Z,12.60
2018-07-07T23:04:25.452Z,12.60
2018-07-07T23:06:57.214Z,12.50
2018-07-07T23:09:28.240Z,12.50
2018-07-07T23:11:58.116Z,12.50
2018-07-07T23:14:28.888Z,12.40
2018-07-07T23:17:02.059Z,12.40
2018-07-07T23:19:31.736Z,12.30
2018-07-07T23:22:01.606Z,12.30
2018-07-07T23:24:32.019Z,12.20
2018-07-07T23:27:01.261Z,12.20
2018-07-07T23:29:31.199Z,12.20
2018-07-07T23:32:02.377Z,12.10
2018-07-07T23:34:31.628Z,12.10
2018-07-07T23:37:00.717Z,12.00
2018-07-07T23:39:30.996Z,12.00
2018-07-07T23:42:00.348Z,12.00
2018-07-07T23:44:29.807Z,12.00
2018-07-07T23:47:01.719Z,12.00
2018-07-07T23:49:30.887Z,12.00
2018-07-07T23:52:00.745Z,12.00
2018-07-07T23:54:30.431Z,12.00
2018-07-07T23:57:01.092Z,11.90
2018-07-07T23:59:33.034Z,11.90
